Catskill, New York
Current Conditions -  °F | °C
As of 9:54 PM on Monday 26 Jan 2015 (Local Time) from KPSF Reporting Station
Overcast Overcast  
Wind Chill:   Ceiling: 6500
Heat Index: 17°   Visibility: 10mi
Dew Point: 11°   Wind: 9mph
Humidity: 77%   Direction: 40°NE
Pressure: 29.85"   Gusts: NA
Location:  42.22°N, 73.86°W
Report Text: KPSF 270254Z AUTO 04008KT 10SM OVC065 M08/M12 A2985 RMK AO2 SLP132 60000 T10831117 58021
Loading
Personal Weather Stations






























Interactive Weather Map New forecast layout! Learn more

10-Day Weather Forecast

Advertisements
Track Severe Weather on mobile